sensor_id;sensor_type;location;lat;lon;timestamp;P1;durP1;ratioP1;P2;durP2;ratioP2
62957;SDS011;49056;48.352;10.926;2023-01-24T00:00:12;6.37;;;3.42;;
62957;SDS011;49056;48.352;10.926;2023-01-24T00:05:33;6.78;;;3.67;;
62957;SDS011;49056;48.352;10.926;2023-01-24T00:11:04;6.40;;;3.58;;
62957;SDS011;49056;48.352;10.926;2023-01-24T00:16:24;5.97;;;3.45;;
62957;SDS011;49056;48.352;10.926;2023-01-24T00:21:44;4.60;;;3.00;;
62957;SDS011;49056;48.352;10.926;2023-01-24T00:27:04;5.97;;;3.87;;
62957;SDS011;49056;48.352;10.926;2023-01-24T00:32:25;6.63;;;3.60;;
62957;SDS011;49056;48.352;10.926;2023-01-24T00:37:45;5.70;;;3.30;;
62957;SDS011;49056;48.352;10.926;2023-01-24T00:43:06;4.05;;;2.50;;
62957;SDS011;49056;48.352;10.926;2023-01-24T00:48:26;5.20;;;3.17;;
62957;SDS011;49056;48.352;10.926;2023-01-24T00:53:46;4.70;;;2.93;;
62957;SDS011;49056;48.352;10.926;2023-01-24T00:59:06;5.27;;;2.30;;
62957;SDS011;49056;48.352;10.926;2023-01-24T01:04:27;6.05;;;2.90;;
62957;SDS011;49056;48.352;10.926;2023-01-24T01:09:47;5.43;;;2.92;;
62957;SDS011;49056;48.352;10.926;2023-01-24T01:15:08;5.03;;;3.23;;
62957;SDS011;49056;48.352;10.926;2023-01-24T01:20:28;5.50;;;3.20;;
62957;SDS011;49056;48.352;10.926;2023-01-24T01:25:49;5.60;;;2.80;;
62957;SDS011;49056;48.352;10.926;2023-01-24T01:31:09;6.75;;;3.65;;
62957;SDS011;49056;48.352;10.926;2023-01-24T01:36:29;5.62;;;3.20;;
62957;SDS011;49056;48.352;10.926;2023-01-24T01:41:50;5.18;;;2.33;;
62957;SDS011;49056;48.352;10.926;2023-01-24T01:47:21;5.93;;;2.80;;
62957;SDS011;49056;48.352;10.926;2023-01-24T01:52:43;5.35;;;1.87;;
62957;SDS011;49056;48.352;10.926;2023-01-24T01:58:04;4.37;;;3.37;;
62957;SDS011;49056;48.352;10.926;2023-01-24T02:03:29;3.97;;;2.00;;
62957;SDS011;49056;48.352;10.926;2023-01-24T02:09:00;5.28;;;3.12;;
62957;SDS011;49056;48.352;10.926;2023-01-24T02:14:22;5.80;;;2.83;;
62957;SDS011;49056;48.352;10.926;2023-01-24T02:20:14;6.30;;;2.85;;
62957;SDS011;49056;48.352;10.926;2023-01-24T02:25:42;5.53;;;2.65;;
62957;SDS011;49056;48.352;10.926;2023-01-24T02:31:04;5.65;;;2.65;;
62957;SDS011;49056;48.352;10.926;2023-01-24T02:36:28;5.43;;;2.87;;
62957;SDS011;49056;48.352;10.926;2023-01-24T02:42:00;4.97;;;3.12;;
62957;SDS011;49056;48.352;10.926;2023-01-24T02:47:23;8.55;;;3.95;;
62957;SDS011;49056;48.352;10.926;2023-01-24T02:52:44;6.55;;;4.18;;
62957;SDS011;49056;48.352;10.926;2023-01-24T02:58:24;6.20;;;3.42;;
62957;SDS011;49056;48.352;10.926;2023-01-24T03:03:45;6.75;;;3.42;;
62957;SDS011;49056;48.352;10.926;2023-01-24T03:09:05;5.28;;;2.35;;
62957;SDS011;49056;48.352;10.926;2023-01-24T03:14:39;6.95;;;3.33;;
62957;SDS011;49056;48.352;10.926;2023-01-24T03:20:18;5.53;;;2.40;;
62957;SDS011;49056;48.352;10.926;2023-01-24T03:25:57;4.57;;;2.42;;
62957;SDS011;49056;48.352;10.926;2023-01-24T03:31:36;5.55;;;2.50;;
62957;SDS011;49056;48.352;10.926;2023-01-24T03:37:16;6.28;;;2.87;;
62957;SDS011;49056;48.352;10.926;2023-01-24T03:42:37;3.92;;;2.20;;
62957;SDS011;49056;48.352;10.926;2023-01-24T03:48:07;10.85;;;4.55;;
62957;SDS011;49056;48.352;10.926;2023-01-24T03:53:33;5.60;;;2.87;;
62957;SDS011;49056;48.352;10.926;2023-01-24T03:58:54;6.37;;;2.90;;
62957;SDS011;49056;48.352;10.926;2023-01-24T04:04:14;5.53;;;2.70;;
62957;SDS011;49056;48.352;10.926;2023-01-24T04:09:34;4.05;;;2.70;;
62957;SDS011;49056;48.352;10.926;2023-01-24T04:14:54;5.18;;;2.90;;
62957;SDS011;49056;48.352;10.926;2023-01-24T04:20:15;6.00;;;3.13;;
62957;SDS011;49056;48.352;10.926;2023-01-24T04:25:35;6.77;;;3.40;;
62957;SDS011;49056;48.352;10.926;2023-01-24T04:30:59;4.45;;;2.50;;
62957;SDS011;49056;48.352;10.926;2023-01-24T04:36:19;5.25;;;3.65;;
62957;SDS011;49056;48.352;10.926;2023-01-24T04:41:40;5.50;;;2.80;;
62957;SDS011;49056;48.352;10.926;2023-01-24T04:47:00;4.97;;;3.03;;
62957;SDS011;49056;48.352;10.926;2023-01-24T04:52:20;5.37;;;2.83;;
62957;SDS011;49056;48.352;10.926;2023-01-24T04:57:41;5.10;;;2.92;;
62957;SDS011;49056;48.352;10.926;2023-01-24T05:03:02;4.68;;;3.03;;
62957;SDS011;49056;48.352;10.926;2023-01-24T05:08:22;5.53;;;2.62;;
62957;SDS011;49056;48.352;10.926;2023-01-24T05:13:43;4.33;;;2.30;;
62957;SDS011;49056;48.352;10.926;2023-01-24T05:19:03;5.57;;;2.67;;
62957;SDS011;49056;48.352;10.926;2023-01-24T05:24:24;4.30;;;2.50;;
62957;SDS011;49056;48.352;10.926;2023-01-24T05:29:44;5.47;;;2.87;;
62957;SDS011;49056;48.352;10.926;2023-01-24T05:35:05;4.72;;;2.50;;
62957;SDS011;49056;48.352;10.926;2023-01-24T05:40:25;4.55;;;1.80;;
62957;SDS011;49056;48.352;10.926;2023-01-24T05:45:45;4.47;;;2.28;;
62957;SDS011;49056;48.352;10.926;2023-01-24T05:51:06;4.00;;;2.12;;
62957;SDS011;49056;48.352;10.926;2023-01-24T05:56:27;3.62;;;2.00;;
62957;SDS011;49056;48.352;10.926;2023-01-24T06:01:48;4.50;;;3.12;;
62957;SDS011;49056;48.352;10.926;2023-01-24T06:07:09;6.10;;;2.80;;
62957;SDS011;49056;48.352;10.926;2023-01-24T06:12:29;5.53;;;2.92;;
62957;SDS011;49056;48.352;10.926;2023-01-24T06:17:49;6.97;;;2.55;;
62957;SDS011;49056;48.352;10.926;2023-01-24T06:23:10;4.53;;;2.80;;
62957;SDS011;49056;48.352;10.926;2023-01-24T06:28:34;5.10;;;3.03;;
62957;SDS011;49056;48.352;10.926;2023-01-24T06:34:00;4.62;;;2.58;;
62957;SDS011;49056;48.352;10.926;2023-01-24T06:39:24;3.97;;;2.50;;
62957;SDS011;49056;48.352;10.926;2023-01-24T06:44:45;5.07;;;2.35;;
62957;SDS011;49056;48.352;10.926;2023-01-24T06:50:06;3.50;;;2.22;;
62957;SDS011;49056;48.352;10.926;2023-01-24T06:55:29;4.47;;;2.30;;
62957;SDS011;49056;48.352;10.926;2023-01-24T07:00:51;4.32;;;2.58;;
62957;SDS011;49056;48.352;10.926;2023-01-24T07:06:11;4.10;;;2.10;;
62957;SDS011;49056;48.352;10.926;2023-01-24T07:11:32;4.35;;;1.98;;
62957;SDS011;49056;48.352;10.926;2023-01-24T07:16:52;3.87;;;2.37;;
62957;SDS011;49056;48.352;10.926;2023-01-24T07:22:13;5.50;;;2.33;;
62957;SDS011;49056;48.352;10.926;2023-01-24T07:27:33;4.45;;;2.40;;
62957;SDS011;49056;48.352;10.926;2023-01-24T07:32:54;3.22;;;2.03;;
62957;SDS011;49056;48.352;10.926;2023-01-24T07:38:14;3.72;;;2.37;;
62957;SDS011;49056;48.352;10.926;2023-01-24T07:43:35;2.43;;;1.60;;
62957;SDS011;49056;48.352;10.926;2023-01-24T07:48:55;3.97;;;1.87;;
62957;SDS011;49056;48.352;10.926;2023-01-24T07:54:15;3.53;;;2.10;;
62957;SDS011;49056;48.352;10.926;2023-01-24T07:59:38;3.78;;;2.10;;
62957;SDS011;49056;48.352;10.926;2023-01-24T08:04:59;3.67;;;2.67;;
62957;SDS011;49056;48.352;10.926;2023-01-24T08:10:19;3.95;;;2.10;;
62957;SDS011;49056;48.352;10.926;2023-01-24T08:15:41;3.33;;;1.90;;
62957;SDS011;49056;48.352;10.926;2023-01-24T08:21:02;3.87;;;2.00;;
62957;SDS011;49056;48.352;10.926;2023-01-24T08:26:22;3.90;;;1.73;;
62957;SDS011;49056;48.352;10.926;2023-01-24T08:31:42;3.22;;;1.75;;
62957;SDS011;49056;48.352;10.926;2023-01-24T08:37:03;4.57;;;2.28;;
62957;SDS011;49056;48.352;10.926;2023-01-24T08:42:23;3.90;;;2.15;;
62957;SDS011;49056;48.352;10.926;2023-01-24T08:47:44;2.87;;;1.98;;
62957;SDS011;49056;48.352;10.926;2023-01-24T08:53:04;5.13;;;2.23;;
62957;SDS011;49056;48.352;10.926;2023-01-24T08:58:24;3.30;;;1.83;;
62957;SDS011;49056;48.352;10.926;2023-01-24T09:03:45;4.15;;;2.12;;
62957;SDS011;49056;48.352;10.926;2023-01-24T09:09:05;4.10;;;1.80;;
62957;SDS011;49056;48.352;10.926;2023-01-24T09:14:25;2.72;;;1.50;;
62957;SDS011;49056;48.352;10.926;2023-01-24T09:19:46;4.37;;;2.17;;
62957;SDS011;49056;48.352;10.926;2023-01-24T09:25:06;4.47;;;2.20;;
62957;SDS011;49056;48.352;10.926;2023-01-24T09:30:28;2.78;;;1.50;;
62957;SDS011;49056;48.352;10.926;2023-01-24T09:35:56;3.53;;;1.98;;
62957;SDS011;49056;48.352;10.926;2023-01-24T09:52:04;3.17;;;1.08;;
62957;SDS011;49056;48.352;10.926;2023-01-24T09:57:31;2.65;;;1.52;;
62957;SDS011;49056;48.352;10.926;2023-01-24T10:02:54;2.83;;;1.73;;
62957;SDS011;49056;48.352;10.926;2023-01-24T10:24:37;3.15;;;1.70;;
62957;SDS011;49056;48.352;10.926;2023-01-24T10:30:00;2.53;;;1.95;;
62957;SDS011;49056;48.352;10.926;2023-01-24T10:35:32;3.47;;;2.10;;
62957;SDS011;49056;48.352;10.926;2023-01-24T10:40:59;2.75;;;1.83;;
62957;SDS011;49056;48.352;10.926;2023-01-24T11:02:48;3.20;;;1.77;;
62957;SDS011;49056;48.352;10.926;2023-01-24T11:13:42;3.33;;;2.22;;
62957;SDS011;49056;48.352;10.926;2023-01-24T11:19:04;3.35;;;1.42;;
62957;SDS011;49056;48.352;10.926;2023-01-24T11:24:25;2.97;;;1.60;;
62957;SDS011;49056;48.352;10.926;2023-01-24T11:35:27;3.12;;;2.10;;
62957;SDS011;49056;48.352;10.926;2023-01-24T11:40:54;3.75;;;1.55;;
62957;SDS011;49056;48.352;10.926;2023-01-24T11:51:55;4.07;;;1.80;;
62957;SDS011;49056;48.352;10.926;2023-01-24T12:08:08;4.72;;;2.08;;
62957;SDS011;49056;48.352;10.926;2023-01-24T12:13:35;3.65;;;1.83;;
62957;SDS011;49056;48.352;10.926;2023-01-24T12:24:30;4.60;;;1.80;;
62957;SDS011;49056;48.352;10.926;2023-01-24T12:51:58;2.72;;;1.70;;
62957;SDS011;49056;48.352;10.926;2023-01-24T12:57:25;3.93;;;1.93;;
62957;SDS011;49056;48.352;10.926;2023-01-24T13:08:42;2.00;;;1.40;;
62957;SDS011;49056;48.352;10.926;2023-01-24T13:19:40;3.77;;;2.23;;
62957;SDS011;49056;48.352;10.926;2023-01-24T13:35:47;2.83;;;1.53;;
62957;SDS011;49056;48.352;10.926;2023-01-24T13:41:13;4.22;;;1.87;;
62957;SDS011;49056;48.352;10.926;2023-01-24T13:57:45;3.17;;;1.40;;
62957;SDS011;49056;48.352;10.926;2023-01-24T14:03:16;2.17;;;1.50;;
62957;SDS011;49056;48.352;10.926;2023-01-24T14:08:40;2.87;;;1.62;;
62957;SDS011;49056;48.352;10.926;2023-01-24T14:14:02;2.83;;;1.48;;
62957;SDS011;49056;48.352;10.926;2023-01-24T14:19:41;2.53;;;1.52;;
62957;SDS011;49056;48.352;10.926;2023-01-24T14:30:46;3.62;;;1.80;;
62957;SDS011;49056;48.352;10.926;2023-01-24T14:36:11;1.92;;;1.70;;
62957;SDS011;49056;48.352;10.926;2023-01-24T14:41:32;4.03;;;2.10;;
62957;SDS011;49056;48.352;10.926;2023-01-24T14:46:59;5.55;;;2.03;;
62957;SDS011;49056;48.352;10.926;2023-01-24T14:52:21;2.80;;;1.65;;
62957;SDS011;49056;48.352;10.926;2023-01-24T14:57:42;2.70;;;1.73;;
62957;SDS011;49056;48.352;10.926;2023-01-24T15:03:02;4.12;;;2.35;;
62957;SDS011;49056;48.352;10.926;2023-01-24T15:08:25;3.10;;;1.52;;
62957;SDS011;49056;48.352;10.926;2023-01-24T15:13:48;1.95;;;1.33;;
62957;SDS011;49056;48.352;10.926;2023-01-24T15:19:19;3.12;;;1.52;;
62957;SDS011;49056;48.352;10.926;2023-01-24T15:24:40;2.45;;;1.40;;
62957;SDS011;49056;48.352;10.926;2023-01-24T15:35:46;3.12;;;1.37;;
62957;SDS011;49056;48.352;10.926;2023-01-24T15:46:34;2.50;;;1.60;;
62957;SDS011;49056;48.352;10.926;2023-01-24T15:52:16;2.78;;;1.30;;
62957;SDS011;49056;48.352;10.926;2023-01-24T15:57:37;2.20;;;1.30;;
62957;SDS011;49056;48.352;10.926;2023-01-24T16:02:58;4.22;;;1.85;;
62957;SDS011;49056;48.352;10.926;2023-01-24T16:08:18;2.60;;;1.60;;
62957;SDS011;49056;48.352;10.926;2023-01-24T16:13:39;2.22;;;1.17;;
62957;SDS011;49056;48.352;10.926;2023-01-24T16:19:01;3.78;;;2.03;;
62957;SDS011;49056;48.352;10.926;2023-01-24T16:24:22;2.85;;;1.58;;
62957;SDS011;49056;48.352;10.926;2023-01-24T16:29:42;3.50;;;1.95;;
62957;SDS011;49056;48.352;10.926;2023-01-24T16:35:03;2.30;;;1.27;;
62957;SDS011;49056;48.352;10.926;2023-01-24T16:40:23;4.28;;;1.87;;
62957;SDS011;49056;48.352;10.926;2023-01-24T16:45:45;3.60;;;1.90;;
62957;SDS011;49056;48.352;10.926;2023-01-24T16:51:08;2.85;;;1.50;;
62957;SDS011;49056;48.352;10.926;2023-01-24T16:56:29;2.42;;;1.58;;
62957;SDS011;49056;48.352;10.926;2023-01-24T17:01:49;3.33;;;1.35;;
62957;SDS011;49056;48.352;10.926;2023-01-24T17:07:10;3.15;;;1.48;;
62957;SDS011;49056;48.352;10.926;2023-01-24T17:12:30;3.35;;;1.75;;
62957;SDS011;49056;48.352;10.926;2023-01-24T17:17:50;3.70;;;1.70;;
62957;SDS011;49056;48.352;10.926;2023-01-24T17:23:11;2.77;;;1.57;;
62957;SDS011;49056;48.352;10.926;2023-01-24T17:28:31;2.75;;;1.30;;
62957;SDS011;49056;48.352;10.926;2023-01-24T17:33:52;4.40;;;2.00;;
62957;SDS011;49056;48.352;10.926;2023-01-24T17:39:12;3.70;;;1.87;;
62957;SDS011;49056;48.352;10.926;2023-01-24T17:44:33;4.05;;;1.83;;
62957;SDS011;49056;48.352;10.926;2023-01-24T17:49:54;3.53;;;1.63;;
62957;SDS011;49056;48.352;10.926;2023-01-24T17:55:14;3.83;;;2.63;;
62957;SDS011;49056;48.352;10.926;2023-01-24T18:00:36;4.55;;;2.47;;
62957;SDS011;49056;48.352;10.926;2023-01-24T18:05:56;2.85;;;1.65;;
62957;SDS011;49056;48.352;10.926;2023-01-24T18:11:18;3.40;;;1.67;;
62957;SDS011;49056;48.352;10.926;2023-01-24T18:16:38;3.80;;;1.62;;
62957;SDS011;49056;48.352;10.926;2023-01-24T18:21:58;4.97;;;1.87;;
62957;SDS011;49056;48.352;10.926;2023-01-24T18:27:19;3.30;;;1.90;;
62957;SDS011;49056;48.352;10.926;2023-01-24T18:32:39;3.28;;;1.70;;
62957;SDS011;49056;48.352;10.926;2023-01-24T18:37:59;2.67;;;1.40;;
62957;SDS011;49056;48.352;10.926;2023-01-24T18:43:20;3.37;;;1.60;;
62957;SDS011;49056;48.352;10.926;2023-01-24T18:48:41;2.75;;;1.40;;
62957;SDS011;49056;48.352;10.926;2023-01-24T18:54:01;2.67;;;1.70;;
62957;SDS011;49056;48.352;10.926;2023-01-24T18:59:24;3.60;;;2.10;;
62957;SDS011;49056;48.352;10.926;2023-01-24T19:04:44;2.83;;;1.85;;
62957;SDS011;49056;48.352;10.926;2023-01-24T19:10:05;5.10;;;1.83;;
62957;SDS011;49056;48.352;10.926;2023-01-24T19:15:26;3.75;;;2.20;;
62957;SDS011;49056;48.352;10.926;2023-01-24T19:20:46;6.07;;;2.27;;
62957;SDS011;49056;48.352;10.926;2023-01-24T19:26:07;3.87;;;2.60;;
62957;SDS011;49056;48.352;10.926;2023-01-24T19:31:27;5.18;;;2.35;;
62957;SDS011;49056;48.352;10.926;2023-01-24T19:36:48;2.47;;;1.30;;
62957;SDS011;49056;48.352;10.926;2023-01-24T19:42:08;3.30;;;1.60;;
62957;SDS011;49056;48.352;10.926;2023-01-24T19:47:29;3.92;;;2.17;;
62957;SDS011;49056;48.352;10.926;2023-01-24T19:52:49;3.07;;;1.80;;
62957;SDS011;49056;48.352;10.926;2023-01-24T19:58:10;4.18;;;1.55;;
62957;SDS011;49056;48.352;10.926;2023-01-24T20:03:31;3.47;;;1.87;;
62957;SDS011;49056;48.352;10.926;2023-01-24T20:08:53;5.25;;;2.15;;
62957;SDS011;49056;48.352;10.926;2023-01-24T20:14:13;3.97;;;2.33;;
62957;SDS011;49056;48.352;10.926;2023-01-24T20:19:34;4.00;;;1.98;;
62957;SDS011;49056;48.352;10.926;2023-01-24T20:24:55;3.87;;;1.67;;
62957;SDS011;49056;48.352;10.926;2023-01-24T20:30:16;3.43;;;2.37;;
62957;SDS011;49056;48.352;10.926;2023-01-24T20:35:37;4.45;;;2.47;;
62957;SDS011;49056;48.352;10.926;2023-01-24T20:40:58;3.72;;;2.12;;
62957;SDS011;49056;48.352;10.926;2023-01-24T20:46:20;3.40;;;1.83;;
62957;SDS011;49056;48.352;10.926;2023-01-24T20:51:40;2.70;;;1.67;;
62957;SDS011;49056;48.352;10.926;2023-01-24T20:57:00;5.47;;;2.57;;
62957;SDS011;49056;48.352;10.926;2023-01-24T21:02:21;5.95;;;2.25;;
62957;SDS011;49056;48.352;10.926;2023-01-24T21:07:41;3.37;;;2.57;;
62957;SDS011;49056;48.352;10.926;2023-01-24T21:13:01;5.68;;;2.55;;
62957;SDS011;49056;48.352;10.926;2023-01-24T21:18:22;5.22;;;3.00;;
62957;SDS011;49056;48.352;10.926;2023-01-24T21:23:43;4.15;;;1.77;;
62957;SDS011;49056;48.352;10.926;2023-01-24T21:29:03;3.80;;;1.50;;
62957;SDS011;49056;48.352;10.926;2023-01-24T21:34:24;4.07;;;1.95;;
62957;SDS011;49056;48.352;10.926;2023-01-24T21:39:44;4.53;;;2.80;;
62957;SDS011;49056;48.352;10.926;2023-01-24T21:45:04;4.00;;;1.83;;
62957;SDS011;49056;48.352;10.926;2023-01-24T21:50:25;4.68;;;2.30;;
62957;SDS011;49056;48.352;10.926;2023-01-24T21:55:47;3.85;;;2.17;;
62957;SDS011;49056;48.352;10.926;2023-01-24T22:01:27;5.22;;;2.58;;
62957;SDS011;49056;48.352;10.926;2023-01-24T22:06:48;2.80;;;1.83;;
62957;SDS011;49056;48.352;10.926;2023-01-24T22:12:08;3.70;;;2.10;;
62957;SDS011;49056;48.352;10.926;2023-01-24T22:17:29;3.50;;;2.23;;
62957;SDS011;49056;48.352;10.926;2023-01-24T22:28:13;3.85;;;2.28;;
62957;SDS011;49056;48.352;10.926;2023-01-24T22:33:34;4.68;;;2.15;;
62957;SDS011;49056;48.352;10.926;2023-01-24T22:38:54;2.53;;;1.58;;
62957;SDS011;49056;48.352;10.926;2023-01-24T22:44:15;4.50;;;2.33;;
62957;SDS011;49056;48.352;10.926;2023-01-24T22:49:35;3.53;;;2.08;;
62957;SDS011;49056;48.352;10.926;2023-01-24T22:54:56;3.83;;;1.80;;
62957;SDS011;49056;48.352;10.926;2023-01-24T23:00:17;4.87;;;2.20;;
62957;SDS011;49056;48.352;10.926;2023-01-24T23:05:37;4.28;;;2.30;;
62957;SDS011;49056;48.352;10.926;2023-01-24T23:11:05;4.43;;;2.37;;
62957;SDS011;49056;48.352;10.926;2023-01-24T23:27:14;3.92;;;1.87;;
62957;SDS011;49056;48.352;10.926;2023-01-24T23:32:45;3.50;;;1.92;;
62957;SDS011;49056;48.352;10.926;2023-01-24T23:38:06;3.97;;;1.85;;
62957;SDS011;49056;48.352;10.926;2023-01-24T23:43:26;3.75;;;1.90;;
62957;SDS011;49056;48.352;10.926;2023-01-24T23:48:47;3.78;;;1.92;;
62957;SDS011;49056;48.352;10.926;2023-01-24T23:54:07;4.15;;;2.22;;
62957;SDS011;49056;48.352;10.926;2023-01-24T23:59:28;5.07;;;2.05;;
